Time;durP1;ratioP1;P1;durP2;ratioP2;P2;SDS_P1;SDS_P2;PMS_P1;PMS_P2;Temp;Humidity;BMP_temperature;BMP_pressure;BME280_temperature;BME280_humidity;BME280_pressure;Samples;Min_cycle;Max_cycle;Signal;HPM_P1;HPM_P2
2022/01/14 05:57:10;;;;;;;34.40;12.38;;;;;;;-4.17;71.32;95420.47;2942607;28;1422168;-73
2022/01/14 05:59:35;;;;;;;27.60;9.55;;;;;;;-3.72;72.89;95413.19;5115531;28;20027;-73
2022/01/14 06:02:02;;;;;;;32.00;14.10;;;;;;;-4.14;71.79;95403.84;5115695;28;20019;-74
2022/01/14 06:04:29;;;;;;;31.83;13.10;;;;;;;-4.41;71.54;95398.72;5115267;28;20024;-72
2022/01/14 06:06:54;;;;;;;37.50;14.95;;;;;;;-4.52;72.25;95403.94;5115400;28;20031;-73
2022/01/14 06:09:20;;;;;;;39.20;13.40;;;;;;;-4.37;72.03;95404.81;5115588;28;20335;-72
2022/01/14 06:11:45;;;;;;;28.95;12.60;;;;;;;-4.36;71.51;95402.91;5115347;28;20036;-72
2022/01/14 06:14:11;;;;;;;36.58;13.82;;;;;;;-4.32;72.11;95393.88;5115597;28;20051;-72
2022/01/14 06:16:36;;;;;;;27.30;11.90;;;;;;;-4.25;72.22;95399.22;5115037;28;20020;-72
2022/01/14 06:19:02;;;;;;;32.70;13.45;;;;;;;-4.27;72.33;95395.41;5114099;28;20024;-71
2022/01/14 06:21:28;;;;;;;31.60;13.93;;;;;;;-4.27;72.01;95409.44;5115541;28;20075;-72
2022/01/14 06:23:54;;;;;;;35.75;15.50;;;;;;;-4.16;71.31;95398.13;5113991;28;20520;-73
2022/01/14 06:26:19;;;;;;;36.70;15.10;;;;;;;-4.19;72.02;95406.84;5114640;28;20102;-74
2022/01/14 06:28:46;;;;;;;27.13;13.07;;;;;;;-4.24;72.86;95399.97;5113798;28;20182;-73
2022/01/14 06:31:11;;;;;;;30.85;13.90;;;;;;;-4.10;74.90;95409.94;5114755;28;20030;-72
2022/01/14 06:33:37;;;;;;;35.70;13.20;;;;;;;-3.97;75.05;95397.88;5114761;28;20106;-73
2022/01/14 06:36:02;;;;;;;25.70;12.85;;;;;;;-3.96;75.80;95402.06;5114690;28;20038;-73
2022/01/14 06:38:28;;;;;;;29.52;12.70;;;;;;;-3.94;75.73;95391.84;5114610;28;20459;-73
2022/01/14 06:40:53;;;;;;;29.08;12.35;;;;;;;-3.75;77.80;95392.69;5114483;28;20035;-75
2022/01/14 06:43:19;;;;;;;31.50;12.30;;;;;;;-3.72;77.64;95391.97;5114740;28;20030;-72
2022/01/14 06:45:44;;;;;;;26.98;12.80;;;;;;;-3.58;80.88;95401.88;5114722;28;20094;-73
2022/01/14 06:48:10;;;;;;;29.85;10.63;;;;;;;-3.20;86.45;95388.34;5115014;28;20045;-73
2022/01/14 06:50:36;;;;;;;23.90;10.40;;;;;;;-3.09;87.04;95375.88;5114734;27;20467;-73
2022/01/14 06:53:02;;;;;;;25.08;10.55;;;;;;;-3.05;85.23;95387.25;5114991;28;20030;-74
2022/01/14 06:55:27;;;;;;;22.90;9.93;;;;;;;-2.84;88.79;95383.13;5113143;28;20019;-73
2022/01/14 06:57:53;;;;;;;27.02;10.95;;;;;;;-2.72;87.99;95383.50;5114210;28;20518;-70
2022/01/14 07:00:20;;;;;;;17.55;8.68;;;;;;;-2.48;88.10;95377.81;5114464;28;20343;-70
2022/01/14 07:02:45;;;;;;;24.15;10.43;;;;;;;-2.66;87.75;95361.84;5114191;28;20023;-70
2022/01/14 07:05:11;;;;;;;14.48;7.20;;;;;;;-2.31;93.86;95353.09;5114245;28;20491;-69
2022/01/14 07:07:38;;;;;;;17.33;7.75;;;;;;;-2.13;93.50;95349.66;5113147;28;20056;-71
2022/01/14 07:10:08;;;;;;;12.75;6.63;;;;;;;-1.87;97.31;95365.19;5114155;28;20035;-70
2022/01/14 07:12:40;;;;;;;11.63;5.90;;;;;;;-1.93;96.46;95350.75;5114259;28;20162;-72
2022/01/14 07:15:15;;;;;;;14.82;6.05;;;;;;;-1.69;97.51;95353.75;5114079;28;20474;-70
2022/01/14 07:17:42;;;;;;;12.68;5.53;;;;;;;-1.64;96.42;95341.91;5112952;28;20030;-71
2022/01/14 07:20:12;;;;;;;9.93;5.60;;;;;;;-1.63;97.17;95333.53;5113980;28;20475;-69
2022/01/14 07:22:40;;;;;;;11.93;6.15;;;;;;;-1.43;96.93;95357.03;5114346;28;20028;-69
2022/01/14 07:25:05;;;;;;;9.07;4.65;;;;;;;-1.44;95.80;95342.97;5114209;28;20097;-70
2022/01/14 07:27:32;;;;;;;14.05;6.30;;;;;;;-1.39;95.47;95355.88;5113891;28;20032;-70
2022/01/14 07:29:58;;;;;;;15.65;6.22;;;;;;;-1.38;94.40;95346.75;5114090;28;20015;-70
2022/01/14 07:32:23;;;;;;;10.73;5.28;;;;;;;-1.35;94.99;95361.19;5114072;28;20057;-71
2022/01/14 07:34:49;;;;;;;9.00;5.53;;;;;;;-1.21;94.83;95350.47;5113579;28;20133;-71
2022/01/14 07:37:15;;;;;;;12.40;5.85;;;;;;;-1.19;94.58;95339.41;5113604;28;20054;-72
2022/01/14 07:39:41;;;;;;;12.43;5.82;;;;;;;-0.99;93.91;95353.00;5112833;28;20348;-72
2022/01/14 07:42:07;;;;;;;19.05;6.95;;;;;;;-0.97;93.76;95332.03;5113573;28;20130;-71
2022/01/14 07:44:33;;;;;;;12.25;5.75;;;;;;;-0.94;93.38;95317.97;5113735;28;20053;-73
2022/01/14 07:46:58;;;;;;;12.85;5.18;;;;;;;-0.98;93.96;95327.09;5113457;28;20376;-70
2022/01/14 07:49:24;;;;;;;14.07;6.13;;;;;;;-1.00;93.22;95324.84;5112492;28;20055;-71
2022/01/14 07:51:49;;;;;;;10.02;5.38;;;;;;;-0.73;92.33;95338.34;5113543;28;20447;-70
2022/01/14 07:54:15;;;;;;;8.57;4.80;;;;;;;-0.64;93.04;95340.59;5114012;28;20038;-70
2022/01/14 07:56:47;;;;;;;11.18;5.70;;;;;;;-0.56;91.55;95347.38;5113380;28;20447;-70
2022/01/14 07:59:16;;;;;;;14.88;6.00;;;;;;;-0.63;91.34;95336.75;5112179;28;20421;-71
2022/01/14 08:01:44;;;;;;;15.57;7.05;;;;;;;-0.63;91.90;95350.09;5112097;28;20482;-71
2022/01/14 08:04:10;;;;;;;8.07;4.78;;;;;;;-0.73;91.28;95334.94;5113102;28;20079;-70
2022/01/14 08:06:43;;;;;;;9.48;5.65;;;;;;;-0.67;91.70;95336.03;5113068;28;20027;-71
2022/01/14 08:09:09;;;;;;;9.93;5.80;;;;;;;-0.68;91.82;95313.19;5112903;28;20043;-71
2022/01/14 08:11:34;;;;;;;11.13;5.40;;;;;;;-0.58;91.99;95323.00;5112333;28;20058;-69
2022/01/14 08:14:00;;;;;;;10.35;5.15;;;;;;;-0.47;90.52;95300.84;5113089;28;20015;-71
2022/01/14 08:16:25;;;;;;;13.05;5.82;;;;;;;-0.23;89.92;95310.50;5112920;28;20465;-73
2022/01/14 08:18:51;;;;;;;9.45;5.22;;;;;;;-0.11;89.99;95306.59;5112968;28;20030;-71
2022/01/14 08:21:17;;;;;;;10.32;6.07;;;;;;;0.01;88.26;95307.97;5111893;28;20028;-70
2022/01/14 08:23:43;;;;;;;8.75;4.38;;;;;;;0.03;88.21;95300.34;5112704;28;20455;-71
2022/01/14 08:26:09;;;;;;;11.02;5.65;;;;;;;0.22;85.73;95298.19;5112777;28;20015;-71
2022/01/14 08:28:34;;;;;;;11.32;6.07;;;;;;;0.71;82.26;95314.78;5112733;28;20020;-73
2022/01/14 08:31:00;;;;;;;9.52;5.15;;;;;;;0.91;81.29;95309.53;5111540;28;20108;-72
2022/01/14 08:33:25;;;;;;;10.93;5.65;;;;;;;1.38;80.13;95310.75;5112491;28;20042;-72
2022/01/14 08:35:51;;;;;;;8.85;5.18;;;;;;;1.71;77.52;95311.72;5112446;28;20023;-72
2022/01/14 08:38:16;;;;;;;8.57;5.10;;;;;;;1.62;77.60;95298.13;5112770;28;20055;-71
2022/01/14 08:40:42;;;;;;;8.32;5.00;;;;;;;1.63;77.69;95305.72;5112955;28;20022;-72
2022/01/14 08:43:08;;;;;;;10.20;4.75;;;;;;;1.67;76.77;95294.97;5112444;28;20027;-71
2022/01/14 08:45:33;;;;;;;10.70;4.95;;;;;;;2.08;74.92;95280.47;5112434;28;20100;-72
2022/01/14 08:48:00;;;;;;;11.40;4.70;;;;;;;2.04;73.91;95287.81;5112640;28;20028;-73
2022/01/14 08:50:28;;;;;;;9.95;5.43;;;;;;;2.10;74.38;95304.91;5112604;28;20047;-69
2022/01/14 08:52:54;;;;;;;9.25;4.18;;;;;;;1.67;74.85;95294.97;5112455;28;20420;-69
2022/01/14 08:55:21;;;;;;;6.30;4.32;;;;;;;2.15;72.77;95304.41;5112167;28;20034;-69
2022/01/14 08:57:47;;;;;;;9.13;5.40;;;;;;;2.53;71.73;95287.22;5112421;28;20040;-71
2022/01/14 09:00:15;;;;;;;12.52;5.40;;;;;;;2.78;71.37;95302.03;5111150;28;20019;-71
2022/01/14 09:02:41;;;;;;;6.70;4.45;;;;;;;2.41;71.46;95275.22;5112072;28;20015;-71
2022/01/14 09:05:07;;;;;;;11.57;5.65;;;;;;;2.48;71.11;95295.75;5112409;28;20022;-71
2022/01/14 09:07:33;;;;;;;10.60;4.97;;;;;;;2.76;69.90;95281.00;5110973;28;20371;-71
2022/01/14 09:09:58;;;;;;;7.00;4.30;;;;;;;2.52;69.91;95267.72;5112082;28;20020;-72
2022/01/14 09:12:24;;;;;;;12.25;5.32;;;;;;;2.47;70.74;95281.59;5112465;28;20473;-71
2022/01/14 09:14:49;;;;;;;10.77;5.40;;;;;;;2.90;69.13;95293.34;5111997;28;20459;-70
2022/01/14 09:17:17;;;;;;;10.05;5.72;;;;;;;2.81;69.28;95288.56;5111292;28;20077;-70
2022/01/14 09:19:43;;;;;;;9.48;5.05;;;;;;;2.48;69.94;95263.59;5112790;28;20027;-71
2022/01/14 09:22:09;;;;;;;10.07;5.55;;;;;;;2.45;68.84;95267.84;5112516;28;20358;-70
2022/01/14 09:24:35;;;;;;;12.13;5.50;;;;;;;2.36;69.78;95267.69;5111978;28;20015;-70
2022/01/14 09:27:01;;;;;;;9.52;4.95;;;;;;;2.80;68.78;95262.91;5112044;28;20020;-71
2022/01/14 09:29:26;;;;;;;10.73;5.32;;;;;;;2.29;69.38;95268.59;5112387;28;20386;-69
2022/01/14 09:31:52;;;;;;;10.18;4.97;;;;;;;2.70;67.69;95259.28;5112052;28;20371;-70
2022/01/14 09:34:17;;;;;;;10.02;5.05;;;;;;;2.61;67.70;95253.00;5110969;28;20035;-69
2022/01/14 09:36:43;;;;;;;10.85;4.88;;;;;;;2.70;66.67;95221.03;5112074;28;20015;-69
2022/01/14 09:39:09;;;;;;;8.90;5.15;;;;;;;3.02;66.48;95233.66;5112015;28;20030;-69
2022/01/14 09:41:34;;;;;;;8.88;4.72;;;;;;;2.71;67.81;95233.22;5112008;28;20022;-70
2022/01/14 09:44:02;;;;;;;8.38;4.90;;;;;;;2.84;66.68;95242.13;5112801;28;20030;-70
2022/01/14 09:46:27;;;;;;;10.93;5.88;;;;;;;3.10;66.42;95252.28;5112211;28;20024;-70
2022/01/14 09:48:53;;;;;;;8.77;4.70;;;;;;;3.20;65.48;95235.19;5111484;28;20100;-70
2022/01/14 09:51:20;;;;;;;8.57;5.15;;;;;;;3.13;67.09;95241.47;5111712;28;20099;-71
2022/01/14 09:53:46;;;;;;;9.95;5.28;;;;;;;4.02;71.01;95215.44;5112258;28;20164;-67
2022/01/14 09:56:17;;;;;;;9.90;5.15;;;;;;;4.02;65.97;95231.56;5111657;28;20028;-67
2022/01/14 09:58:47;;;;;;;9.07;4.95;;;;;;;4.27;64.48;95213.97;5111525;28;20051;-67
2022/01/14 10:01:16;;;;;;;8.60;5.05;;;;;;;4.29;63.79;95207.00;5112276;28;20062;-67
2022/01/14 10:03:53;;;;;;;8.93;4.97;;;;;;;5.22;60.92;95206.09;5115356;28;20019;-67
2022/01/14 10:06:38;;;;;;;10.82;4.97;;;;;;;4.44;61.58;95191.19;5115732;28;20439;-70
2022/01/14 10:09:05;;;;;;;15.55;5.18;;;;;;;4.50;60.92;95196.78;5115925;28;20023;-71
2022/01/14 10:11:30;;;;;;;9.25;5.00;;;;;;;4.47;60.79;95179.59;5115336;28;20171;-82
2022/01/14 10:14:05;;;;;;;7.05;3.83;;;;;;;3.13;66.16;95158.31;5115428;28;20019;-72
2022/01/14 10:16:30;;;;;;;9.90;4.75;;;;;;;3.20;66.61;95179.59;5114974;28;20028;-74
2022/01/14 10:18:56;;;;;;;10.05;5.82;;;;;;;3.27;66.42;95185.97;5115415;28;20024;-70
2022/01/14 10:21:31;;;;;;;8.70;4.95;;;;;;;3.76;64.05;95187.75;5115027;28;20024;-70
2022/01/14 10:23:56;;;;;;;9.48;5.30;;;;;;;3.75;64.89;95162.84;5114919;28;20411;-71
2022/01/14 10:26:22;;;;;;;8.98;5.00;;;;;;;3.71;64.05;95170.25;5115058;28;20024;-71
2022/01/14 10:29:03;;;;;;;9.23;5.13;;;;;;;4.51;64.82;95166.81;5114987;28;20020;-64
2022/01/14 10:31:34;;;;;;;8.52;4.65;;;;;;;4.34;65.49;95165.41;5115940;28;20031;-65
2022/01/14 10:34:13;;;;;;;9.43;5.45;;;;;;;4.73;61.35;95158.84;5115324;28;20039;-67
2022/01/14 10:36:38;;;;;;;7.70;4.68;;;;;;;3.85;65.03;95143.00;5115446;28;20440;-67
2022/01/14 10:39:27;;;;;;;10.77;5.35;;;;;;;3.62;64.64;95151.31;5120656;28;20121;-69
2022/01/14 10:41:55;;;;;;;9.25;5.60;;;;;;;3.87;65.25;95151.38;5115295;28;20019;-73
2022/01/14 10:44:34;;;;;;;9.50;4.90;;;;;;;3.08;65.43;95140.06;5115320;28;20055;-74
2022/01/14 10:47:17;;;;;;;9.88;5.93;;;;;;;3.25;65.79;95150.75;5115023;28;20039;-73
2022/01/14 10:49:46;;;;;;;9.88;5.53;;;;;;;3.76;64.57;95132.13;5114912;28;20463;-74
2022/01/14 10:52:18;;;;;;;10.32;5.80;;;;;;;3.76;63.51;95128.69;5115070;28;20367;-71
2022/01/14 10:54:47;;;;;;;10.75;5.78;;;;;;;3.85;65.48;95124.19;5114388;27;20026;-77
2022/01/14 10:57:27;;;;;;;9.00;5.18;;;;;;;3.50;65.61;95115.94;5114240;28;20043;-75
2022/01/14 11:00:12;;;;;;;9.52;5.47;;;;;;;3.52;65.91;95099.44;5114582;28;20089;-72
2022/01/14 11:02:45;;;;;;;6.88;4.72;;;;;;;3.44;65.39;95098.88;5114690;28;20030;-71
2022/01/14 11:05:17;;;;;;;12.02;6.78;;;;;;;3.41;66.25;95105.09;5114514;28;20356;-72
2022/01/14 11:07:44;;;;;;;8.50;5.20;;;;;;;3.43;64.91;95093.94;5114198;28;20023;-72
2022/01/14 11:10:15;;;;;;;8.65;4.40;;;;;;;3.13;66.27;95096.63;5114176;28;20088;-72
2022/01/14 11:12:41;;;;;;;11.38;5.20;;;;;;;3.73;65.16;95092.69;5114060;28;20428;-72
2022/01/14 11:15:09;;;;;;;9.27;5.13;;;;;;;3.65;64.86;95083.34;5114182;28;20530;-72
2022/01/14 11:17:39;;;;;;;12.43;5.10;;;;;;;3.43;65.96;95077.84;5114273;27;20046;-72
2022/01/14 11:20:08;;;;;;;12.02;5.70;;;;;;;3.43;66.96;95083.94;5114442;28;20348;-71
2022/01/14 11:25:27;;;;;;;6.55;4.20;;;;;;;4.02;68.13;95073.06;5097974;28;20036;-71
2022/01/14 11:27:57;;;;;;;8.82;3.92;;;;;;;4.14;68.02;95056.19;5114125;28;20055;-71
2022/01/14 11:30:38;;;;;;;11.68;4.60;;;;;;;4.40;64.88;95053.47;5112734;28;20501;-70
2022/01/14 11:33:05;;;;;;;17.75;4.85;;;;;;;4.31;64.85;95048.00;5113717;28;20099;-72
2022/01/14 11:35:33;;;;;;;8.48;4.60;;;;;;;4.05;64.42;95048.06;5114104;28;20020;-72
2022/01/14 11:38:00;;;;;;;8.82;4.85;;;;;;;3.35;65.93;95040.47;5113859;28;20106;-71
2022/01/14 11:40:26;;;;;;;8.45;4.55;;;;;;;3.18;66.87;95028.31;5113874;28;20019;-72
2022/01/14 11:43:02;;;;;;;10.90;5.57;;;;;;;3.18;67.30;95012.94;5113640;27;20076;-72
2022/01/14 11:45:39;;;;;;;7.55;4.05;;;;;;;2.81;67.59;94996.31;5113804;28;20015;-73
2022/01/14 11:48:05;;;;;;;8.65;4.18;;;;;;;2.90;68.08;94997.63;5113517;28;20020;-73
2022/01/14 11:50:30;;;;;;;11.68;4.80;;;;;;;3.01;68.52;95011.50;5113673;28;20030;-72
2022/01/14 11:52:58;;;;;;;7.15;3.58;;;;;;;2.81;68.74;94990.97;5112294;28;20023;-72
2022/01/14 11:55:23;;;;;;;7.50;4.55;;;;;;;3.08;68.30;95002.50;5113422;28;20055;-73
2022/01/14 11:57:57;;;;;;;9.23;4.05;;;;;;;2.99;68.01;95005.81;5113505;28;20102;-74
2022/01/14 12:00:41;;;;;;;6.68;3.92;;;;;;;2.99;67.84;94995.09;5112321;28;20095;-76
2022/01/14 12:03:06;;;;;;;9.88;3.63;;;;;;;2.94;68.00;94998.28;5113652;28;20020;-74
2022/01/14 12:05:33;;;;;;;8.07;3.60;;;;;;;3.08;67.43;94994.47;5113304;28;20090;-74
2022/01/14 12:08:02;;;;;;;5.15;3.05;;;;;;;2.76;68.10;94972.72;5113223;28;20043;-75
2022/01/14 12:10:38;;;;;;;7.82;3.80;;;;;;;2.82;68.71;94973.72;5113568;28;20083;-75
2022/01/14 12:13:23;;;;;;;12.20;4.20;;;;;;;3.00;68.20;94975.91;5113416;28;20053;-75
2022/01/14 12:15:58;;;;;;;7.65;4.18;;;;;;;3.12;67.98;94968.28;5113511;28;20031;-75
2022/01/14 12:18:46;;;;;;;10.52;3.85;;;;;;;3.12;67.57;94966.38;5113736;28;20439;-74
2022/01/14 12:21:12;;;;;;;10.00;4.00;;;;;;;3.04;67.64;94957.78;5112311;28;20092;-75
2022/01/14 12:23:38;;;;;;;10.38;3.42;;;;;;;3.04;67.94;94973.09;5112757;28;20024;-74
2022/01/14 12:26:23;;;;;;;9.00;2.85;;;;;;;3.04;68.16;94941.69;5112352;28;20031;-74
2022/01/14 12:29:10;;;;;;;5.80;3.28;;;;;;;3.17;68.16;94955.09;5112828;28;20022;-74
2022/01/14 12:32:00;;;;;;;6.55;3.63;;;;;;;3.29;67.97;94961.66;5111782;28;20032;-75
2022/01/14 12:34:26;;;;;;;8.45;3.40;;;;;;;3.29;68.16;94934.84;5112911;28;20112;-74
2022/01/14 12:36:51;;;;;;;5.68;3.13;;;;;;;3.19;67.93;94925.94;5112714;28;20019;-74
2022/01/14 12:39:18;;;;;;;7.78;3.10;;;;;;;3.25;67.91;94931.50;5112817;28;20088;-72
2022/01/14 12:41:44;;;;;;;5.63;3.17;;;;;;;3.31;67.49;94907.59;5111749;28;20090;-74
2022/01/14 12:44:09;;;;;;;7.07;3.45;;;;;;;3.59;67.06;94924.75;5111638;28;20024;-74
2022/01/14 12:46:51;;;;;;;6.63;3.50;;;;;;;3.71;66.02;94931.31;5111717;28;20525;-73
2022/01/14 12:49:22;;;;;;;6.93;3.92;;;;;;;3.60;66.74;94922.81;5112542;28;20024;-73
2022/01/14 12:52:09;;;;;;;5.67;3.00;;;;;;;3.63;67.28;94946.88;5112621;28;20028;-73
2022/01/14 12:54:40;;;;;;;5.22;3.00;;;;;;;3.66;66.60;94931.84;5112322;28;20022;-72
2022/01/14 12:57:07;;;;;;;7.85;2.92;;;;;;;3.59;67.21;94918.66;5112483;28;20079;-74
2022/01/14 12:59:48;;;;;;;7.40;3.45;;;;;;;3.62;67.51;94923.88;5111433;28;20028;-73
2022/01/14 13:02:23;;;;;;;5.03;3.03;;;;;;;3.62;67.59;94910.47;5112467;28;20023;-68
2022/01/14 13:05:04;;;;;;;4.18;2.60;;;;;;;3.78;65.90;94917.66;5112681;28;20494;-73
2022/01/14 13:07:30;;;;;;;4.13;2.37;;;;;;;3.92;66.04;94904.97;5112539;28;20039;-75
2022/01/14 13:09:56;;;;;;;8.57;3.38;;;;;;;3.91;66.73;94908.81;5112367;28;20088;-76
2022/01/14 13:12:25;;;;;;;6.68;3.53;;;;;;;4.07;67.15;94911.34;5112509;28;20425;-68
2022/01/14 13:14:55;;;;;;;6.47;3.50;;;;;;;3.82;66.93;94896.81;5112284;28;20055;-77
2022/01/14 13:17:30;;;;;;;9.23;3.22;;;;;;;3.72;66.98;94904.03;5112428;28;20055;-75
2022/01/14 13:20:14;;;;;;;5.65;3.30;;;;;;;3.87;66.81;94890.91;5112600;28;20452;-76
2022/01/14 13:22:43;;;;;;;6.30;3.30;;;;;;;3.76;67.21;94877.03;5112569;28;20072;-76
2022/01/14 13:25:17;;;;;;;4.93;3.00;;;;;;;3.78;67.52;94885.44;5112187;28;20474;-75
2022/01/14 13:27:50;;;;;;;6.53;3.65;;;;;;;3.87;67.77;94882.06;5112562;28;20122;-66
2022/01/14 13:30:22;;;;;;;6.97;3.97;;;;;;;3.89;66.80;94882.41;5112228;28;20031;-75
2022/01/14 13:32:51;;;;;;;7.30;3.78;;;;;;;4.03;67.30;94883.88;5112122;28;20044;-75
2022/01/14 13:35:26;;;;;;;7.65;3.55;;;;;;;3.98;67.07;94876.34;5112526;28;20383;-76
2022/01/14 13:37:54;;;;;;;7.70;4.15;;;;;;;3.96;67.17;94882.16;5115331;28;20078;-74
2022/01/14 13:40:41;;;;;;;5.30;3.10;;;;;;;3.83;66.39;94866.09;5116090;28;20028;-73
2022/01/14 13:43:21;;;;;;;6.18;3.30;;;;;;;4.03;66.56;94865.06;5116347;28;20027;-74
2022/01/14 13:45:48;;;;;;;6.88;3.53;;;;;;;3.86;65.74;94838.38;5116485;27;20028;-74
2022/01/14 13:48:24;;;;;;;6.75;3.58;;;;;;;4.02;66.61;94871.63;5116282;28;20369;-75
2022/01/14 13:50:56;;;;;;;5.63;3.17;;;;;;;3.92;66.60;94862.72;5116015;28;20531;-75
2022/01/14 13:53:32;;;;;;;7.88;3.03;;;;;;;3.87;66.23;94866.72;5115027;28;20439;-73
2022/01/14 13:56:06;;;;;;;6.82;3.63;;;;;;;3.93;67.10;94876.91;5115819;28;20028;-74
2022/01/14 13:58:32;;;;;;;6.18;3.65;;;;;;;3.92;67.42;94880.78;5115492;28;20043;-75
2022/01/14 14:01:04;;;;;;;5.72;3.33;;;;;;;3.93;67.45;94876.91;5115943;28;20038;-75
2022/01/14 14:03:45;;;;;;;6.03;3.22;;;;;;;3.77;67.93;94873.19;5115050;28;20426;-77
2022/01/14 14:06:25;;;;;;;5.82;3.83;;;;;;;3.86;67.56;94873.28;5116008;27;20047;-75
2022/01/14 14:09:02;;;;;;;7.15;4.10;;;;;;;3.88;67.49;94856.72;5114984;28;20432;-76
2022/01/14 14:16:55;;;;;;;13.57;5.05;;;;;;;3.81;67.86;94857.72;5115456;28;20034;-74
2022/01/14 14:19:21;;;;;;;7.03;4.40;;;;;;;3.81;67.93;94846.22;5114294;28;20454;-76
2022/01/14 14:22:05;;;;;;;7.30;3.88;;;;;;;3.59;69.01;94832.75;5115413;28;20035;-74
2022/01/14 14:24:31;;;;;;;8.70;3.92;;;;;;;3.49;69.30;94831.88;5115349;28;20024;-75
2022/01/14 14:27:08;;;;;;;5.65;2.90;;;;;;;3.48;69.99;94830.41;5114207;28;20367;-74
2022/01/14 14:29:34;;;;;;;7.85;3.85;;;;;;;3.40;71.09;94835.25;5115107;28;20023;-75
2022/01/14 14:32:14;;;;;;;6.95;3.28;;;;;;;3.33;71.66;94846.94;5115270;27;20119;-74
2022/01/14 14:34:40;;;;;;;6.60;4.20;;;;;;;3.24;72.09;94824.63;5115154;28;20055;-75
2022/01/14 14:37:05;;;;;;;5.60;3.20;;;;;;;3.24;71.52;94838.06;5115100;28;20066;-79
2022/01/14 14:39:31;;;;;;;5.78;3.70;;;;;;;3.21;71.97;94829.66;5115025;28;20458;-76
2022/01/14 14:41:56;;;;;;;7.65;4.00;;;;;;;3.17;73.13;94826.34;5113930;28;20027;-78
2022/01/14 14:44:22;;;;;;;8.30;4.30;;;;;;;3.11;73.18;94814.66;5115049;28;20036;-77
2022/01/14 14:46:47;;;;;;;7.20;3.55;;;;;;;3.00;73.66;94823.03;5115258;28;20057;-76
2022/01/14 14:49:13;;;;;;;5.80;3.00;;;;;;;3.08;73.06;94812.09;5114371;28;20068;-75
2022/01/14 14:51:39;;;;;;;6.07;3.95;;;;;;;3.08;73.32;94826.25;5114519;28;20403;-76
2022/01/14 14:54:05;;;;;;;7.25;3.40;;;;;;;3.03;73.69;94805.34;5114992;28;20027;-75
2022/01/14 14:56:30;;;;;;;6.03;3.45;;;;;;;2.90;74.62;94815.31;5114731;28;20023;-76
2022/01/14 14:58:55;;;;;;;6.53;4.05;;;;;;;2.85;75.39;94814.66;5114737;28;20502;-75
2022/01/14 15:01:21;;;;;;;6.47;3.88;;;;;;;2.83;75.39;94800.19;5115244;28;20095;-76
2022/01/14 15:03:46;;;;;;;8.25;4.50;;;;;;;2.82;75.16;94775.31;5113409;28;20443;-76
2022/01/14 15:06:12;;;;;;;8.15;4.07;;;;;;;2.81;75.31;94803.28;5113246;28;20169;-75
2022/01/14 15:08:38;;;;;;;5.53;3.75;;;;;;;2.84;75.01;94809.72;5114162;28;20106;-77
2022/01/14 15:11:03;;;;;;;6.10;4.13;;;;;;;2.84;75.49;94802.44;5114021;28;20442;-76
2022/01/14 15:13:29;;;;;;;7.78;3.40;;;;;;;2.88;75.05;94811.13;5114462;28;20555;-76
2022/01/14 15:18:22;;;;;;;14.82;4.88;;;;;;;2.94;75.21;94805.97;5114021;28;20107;-76
2022/01/14 15:20:48;;;;;;;4.72;2.90;;;;;;;3.07;74.39;94792.56;5113918;28;20028;-76
2022/01/14 15:23:18;;;;;;;5.90;3.70;;;;;;;3.01;74.45;94797.72;5113830;28;20039;-76
2022/01/14 15:25:45;;;;;;;10.07;4.93;;;;;;;3.01;74.59;94799.66;5114211;28;20449;-76
2022/01/14 15:28:12;;;;;;;7.10;4.13;;;;;;;3.14;73.39;94797.72;5113783;28;20510;-75
2022/01/14 15:30:40;;;;;;;4.25;2.50;;;;;;;3.33;71.62;94800.59;5114157;28;20038;-76
2022/01/14 15:33:06;;;;;;;5.88;3.30;;;;;;;3.33;71.86;94803.28;5113960;28;20088;-76
2022/01/14 15:35:34;;;;;;;6.00;3.85;;;;;;;3.27;72.51;94805.00;5114219;28;20028;-74
2022/01/14 15:38:03;;;;;;;6.63;3.72;;;;;;;3.33;72.28;94806.69;5113810;28;20028;-73
2022/01/14 15:40:34;;;;;;;6.80;3.65;;;;;;;3.16;72.68;94818.72;5113617;28;20110;-72
2022/01/14 15:43:00;;;;;;;7.85;3.67;;;;;;;3.10;73.32;94797.06;5114000;28;20058;-71
2022/01/14 15:45:26;;;;;;;6.30;4.00;;;;;;;3.09;73.08;94827.75;5113209;28;20031;-72
2022/01/14 15:47:51;;;;;;;5.18;2.95;;;;;;;2.96;73.41;94808.97;5113449;28;20399;-71
2022/01/14 15:50:17;;;;;;;5.85;3.20;;;;;;;2.98;73.49;94821.97;5113914;28;20396;-74
2022/01/14 15:52:42;;;;;;;7.05;3.65;;;;;;;2.93;74.05;94830.53;5113492;28;20035;-75
2022/01/14 15:55:09;;;;;;;7.30;3.20;;;;;;;2.84;74.29;94818.53;5113568;28;20059;-77
2022/01/14 15:57:35;;;;;;;5.72;3.38;;;;;;;2.97;74.62;94831.19;5113448;28;20196;-78
2022/01/14 16:00:01;;;;;;;5.43;3.28;;;;;;;2.95;74.41;94828.94;5112616;28;20068;-78
2022/01/14 16:02:26;;;;;;;6.47;3.53;;;;;;;2.99;73.86;94826.16;5112274;28;20383;-75
2022/01/14 16:04:52;;;;;;;3.72;2.47;;;;;;;2.92;74.44;94818.31;5113513;28;20104;-74
2022/01/14 16:07:19;;;;;;;6.88;3.60;;;;;;;3.02;73.92;94817.25;5113088;28;20107;-72
2022/01/14 16:09:46;;;;;;;5.55;3.10;;;;;;;2.90;74.37;94815.31;5113008;28;20455;-77
2022/01/14 16:12:12;;;;;;;7.28;4.03;;;;;;;2.96;74.01;94808.22;5111601;28;20404;-76
2022/01/14 16:14:38;;;;;;;5.07;3.60;;;;;;;2.92;74.11;94812.94;5113099;28;20027;-77
2022/01/14 16:17:04;;;;;;;8.88;3.30;;;;;;;2.88;73.86;94829.88;5112976;28;20023;-75
2022/01/14 16:19:30;;;;;;;5.03;3.50;;;;;;;2.91;73.66;94800.72;5113212;28;20371;-76
2022/01/14 16:21:56;;;;;;;6.20;3.85;;;;;;;2.91;73.74;94793.44;5112704;28;20459;-75
2022/01/14 16:24:22;;;;;;;6.93;3.70;;;;;;;2.92;73.39;94794.16;5112626;28;20034;-75
2022/01/14 16:26:48;;;;;;;5.78;3.55;;;;;;;2.99;72.89;94799.34;5112639;28;20098;-75
2022/01/14 16:29:14;;;;;;;4.80;3.25;;;;;;;2.96;73.35;94810.91;5112729;28;20027;-73
2022/01/14 16:31:39;;;;;;;8.68;2.88;;;;;;;2.98;73.00;94795.16;5112600;28;20091;-74
2022/01/14 16:34:06;;;;;;;8.27;3.40;;;;;;;2.98;72.81;94773.69;5112695;28;20439;-73
2022/01/14 16:36:32;;;;;;;8.20;3.20;;;;;;;3.05;72.76;94794.91;5111214;28;20024;-79
2022/01/14 16:38:58;;;;;;;6.53;3.75;;;;;;;2.98;72.65;94800.50;5112724;28;20137;-76
2022/01/14 16:41:24;;;;;;;4.55;3.30;;;;;;;2.99;72.13;94791.28;5111310;28;20506;-80
2022/01/14 16:43:55;;;;;;;5.18;3.30;;;;;;;3.03;72.52;94814.13;5113468;28;20035;-80
2022/01/14 16:46:21;;;;;;;6.97;3.22;;;;;;;3.02;72.33;94809.19;5113292;28;20038;-82
2022/01/14 16:48:47;;;;;;;4.03;2.75;;;;;;;3.00;72.10;94815.00;5114135;28;20032;-81
2022/01/14 16:51:12;;;;;;;5.00;2.85;;;;;;;3.12;71.59;94813.50;5113182;28;20088;-81
2022/01/14 16:53:38;;;;;;;4.38;3.00;;;;;;;3.25;70.59;94807.38;5113566;28;20051;-82
2022/01/14 16:56:04;;;;;;;4.70;2.72;;;;;;;3.27;70.70;94805.00;5116012;28;20041;-79
2022/01/14 16:58:31;;;;;;;5.90;2.88;;;;;;;3.28;69.92;94803.81;5113039;28;20047;-79
2022/01/14 17:00:56;;;;;;;4.40;2.90;;;;;;;3.33;70.42;94814.75;5114513;28;20148;-82
2022/01/14 17:03:22;;;;;;;3.95;2.55;;;;;;;3.33;70.16;94797.91;5112769;28;20412;-80
2022/01/14 17:05:48;;;;;;;3.90;2.33;;;;;;;3.32;70.57;94796.41;5112167;28;20027;-77
2022/01/14 17:08:14;;;;;;;6.22;2.90;;;;;;;3.28;71.24;94790.41;5112414;28;20469;-82
2022/01/14 17:10:39;;;;;;;6.55;2.80;;;;;;;3.26;70.89;94776.66;5113508;28;20031;-79
2022/01/14 17:13:05;;;;;;;5.32;3.10;;;;;;;3.30;70.46;94788.78;5116504;28;20023;-79
2022/01/14 17:15:31;;;;;;;5.47;2.80;;;;;;;3.35;70.74;94787.47;5116625;28;20054;-80
2022/01/14 17:17:57;;;;;;;5.70;2.75;;;;;;;3.39;70.04;94793.50;5115145;28;20108;-78
2022/01/14 17:20:23;;;;;;;4.90;2.70;;;;;;;3.29;70.74;94770.44;5116167;28;20451;-80
2022/01/14 17:22:48;;;;;;;4.38;2.53;;;;;;;3.36;70.66;94780.94;5116369;28;20088;-81
2022/01/14 17:25:14;;;;;;;7.30;2.25;;;;;;;3.46;69.32;94785.19;5116206;28;20028;-76
2022/01/14 17:27:40;;;;;;;4.10;2.60;;;;;;;3.53;69.21;94763.50;5116137;28;20055;-77
2022/01/14 17:30:08;;;;;;;5.55;2.58;;;;;;;3.52;69.42;94777.38;5116561;28;20148;-76
2022/01/14 17:32:35;;;;;;;5.30;2.70;;;;;;;3.55;68.86;94785.28;5116264;28;20028;-77
2022/01/14 17:35:01;;;;;;;6.72;2.50;;;;;;;3.60;68.39;94770.59;5114691;28;20042;-77
2022/01/14 17:37:26;;;;;;;3.78;2.58;;;;;;;3.62;68.76;94791.63;5116316;28;20174;-77
2022/01/14 17:39:52;;;;;;;4.93;2.40;;;;;;;3.72;67.72;94801.25;5115801;28;20107;-76
2022/01/14 17:42:21;;;;;;;4.65;2.80;;;;;;;3.63;68.48;94798.50;5116010;28;20483;-75
2022/01/14 17:44:47;;;;;;;4.18;2.65;;;;;;;3.60;69.10;94794.75;5115051;28;20102;-73
2022/01/14 17:47:13;;;;;;;4.30;2.55;;;;;;;3.64;68.82;94789.25;5116271;28;20115;-76
2022/01/14 17:49:39;;;;;;;4.82;3.03;;;;;;;3.62;69.07;94800.41;5116010;28;20027;-77